Airfield :
LOGIN :

Register | Disclaimer

   EN    FR    IT 

 










Legend :    VFR   Marginal VFR   IFR   Intensive IFR   Very Intensive IFR
Visi :
Ceiling :
>= 8 km
>= 3000ft
5 to 8 km
1000 to 3000 ft
1500m to 5 km
500 to 1000 ft
800 to 1500m
200 to 500 ft
< 800m
< 200 ft
Symbols :   Thunderstorms  Fog  Heavy snow  Heavy precipitations  Wind > 20 kt
SIGMETs :     Misc.  Thunderstorms  Icing  Turbulence  Mountain Waves  Volcanic Ashes







- Airport Elevation : 313 ft
- Download approach charts


LFQA - Reims-Prunay

CURRENT METAR :
  • 261230Z AUTO 34009KT 320V020 9999 BKN042 10/02 Q1032

EXPIRED METARs :
  • 261200Z AUTO 01008KT 340V050 9999 BKN041 10/01 Q1032
  • 261130Z AUTO 35006KT 300V050 9999 BKN037 09/01 Q1033
  • 261100Z AUTO 01007KT 340V050 9999 BKN036 09/01 Q1033
  • 261030Z AUTO 01007KT 9999 OVC036 08/01 Q1033
  • 261000Z AUTO 01007KT 350V050 9999 OVC037 08/00 Q1033

TAF N/A
No reported NOTAMs for that airfield.



MET'MAP, your aeronautical weather chart ! - Copyright ORBIFLY December 2007 - Disclaimer

ORBIFLY MET'MAP TEAM :

Programming & Development : Alexandra Zaïnal
Concept & Development : Baudouin d'Aumeries
Co-Development & Prog : Marc-Olivier Méhu
Technical & hardware support : Manuel Goepfert

Contact : metmap@orbifly.com




SOURCES & CREDITS :

   NOAA